Time;durP1;ratioP1;P1;durP2;ratioP2;P2;SDS_P1;SDS_P2;PMS_P1;PMS_P2;Temp;Humidity;BMP_temperature;BMP_pressure;BME280_temperature;BME280_humidity;BME280_pressure;Samples;Min_cycle;Max_cycle;Signal;HPM_P1;HPM_P2
2022/02/25 00:00:13;;;;;;;1.30;0.68;;;;;;;;;;5010806;28;20520;-67
2022/02/25 00:02:45;;;;;;;1.52;0.80;;;;;;;;;;4962384;28;20046;-70
2022/02/25 00:05:21;;;;;;;2.20;1.30;;;;;;;;;;4984383;28;20076;-72
2022/02/25 00:07:55;;;;;;;1.55;0.85;;;;;;;;;;4990688;28;20062;-71
2022/02/25 00:10:26;;;;;;;4.90;1.30;;;;;;;;;;4990968;28;20054;-70
2022/02/25 00:12:57;;;;;;;;;;;;;;;;;;4975608;28;20427;-71
2022/02/25 00:15:31;;;;;;;2.13;0.70;;;;;;;;;;4932615;29;19930;-71
2022/02/25 00:18:02;;;;;;;3.47;1.02;;;;;;;;;;4917189;29;20048;-72
2022/02/25 00:20:32;;;;;;;6.93;1.20;;;;;;;;;;4917153;29;20064;-71
2022/02/25 00:23:06;;;;;;;5.38;1.00;;;;;;;;;;4913562;29;20052;-72
2022/02/25 00:25:41;;;;;;;3.67;2.40;;;;;;;;;;4913615;29;20059;-71
2022/02/25 00:28:12;;;;;;;3.40;1.27;;;;;;;;;;4882643;29;20052;-72
2022/02/25 00:30:42;;;;;;;4.57;2.55;;;;;;;;;;4913505;29;20162;-71
2022/02/25 00:33:16;;;;;;;4.13;1.50;;;;;;;;;;4913659;29;20158;-71
2022/02/25 00:35:51;;;;;;;2.97;1.02;;;;;;;;;;4897882;29;20056;-72
2022/02/25 00:38:22;;;;;;;1.35;0.90;;;;;;;;;;4913485;29;20044;-71
2022/02/25 00:40:52;;;;;;;1.30;0.80;;;;;;;;;;4897174;29;20532;-70
2022/02/25 00:43:23;;;;;;;3.20;1.08;;;;;;;;;;4927050;29;20055;-71
2022/02/25 00:45:54;;;;;;;3.55;0.90;;;;;;;;;;4874054;29;20078;-71
2022/02/25 00:48:27;;;;;;;1.95;1.00;;;;;;;;;;4970306;28;20058;-70
2022/02/25 00:51:02;;;;;;;3.13;0.90;;;;;;;;;;4970415;28;20066;-72
2022/02/25 00:53:32;;;;;;;2.78;1.10;;;;;;;;;;4970482;28;20495;-71
2022/02/25 00:56:06;;;;;;;2.33;1.10;;;;;;;;;;4939049;28;20054;-73
2022/02/25 00:58:38;;;;;;;2.60;1.02;;;;;;;;;;4938724;28;20051;-72
2022/02/25 01:01:10;;;;;;;6.03;1.00;;;;;;;;;;4997166;28;20065;-70
2022/02/25 01:03:42;;;;;;;5.85;0.98;;;;;;;;;;5009285;28;20060;-68
2022/02/25 01:06:14;;;;;;;2.38;1.20;;;;;;;;;;5008873;28;20054;-72
2022/02/25 01:08:45;;;;;;;4.60;0.98;;;;;;;;;;5009255;28;20480;-75
2022/02/25 01:11:17;;;;;;;1.15;0.70;;;;;;;;;;4976717;28;20061;-70
2022/02/25 01:13:47;;;;;;;2.70;0.77;;;;;;;;;;5009361;28;20062;-71
2022/02/25 01:16:20;;;;;;;1.73;0.85;;;;;;;;;;5009211;28;20050;-75
2022/02/25 01:18:55;;;;;;;1.35;0.63;;;;;;;;;;4960211;28;20046;-76
2022/02/25 01:21:26;;;;;;;4.07;1.13;;;;;;;;;;4969900;28;20067;-73
2022/02/25 01:23:56;;;;;;;2.20;0.55;;;;;;;;;;4938814;28;20183;-70
2022/02/25 01:26:28;;;;;;;1.60;0.50;;;;;;;;;;4957524;28;20062;-74
2022/02/25 01:28:58;;;;;;;;;;;;;;;;;;4935136;29;20055;-72
2022/02/25 01:31:28;;;;;;;1.13;0.45;;;;;;;;;;4950541;28;20497;-68
2022/02/25 01:33:58;;;;;;;1.52;0.40;;;;;;;;;;4950742;28;20435;-73
2022/02/25 01:36:31;;;;;;;1.08;0.40;;;;;;;;;;4924474;28;20065;-70
2022/02/25 01:39:04;;;;;;;;;;;;;;;;;;4970510;28;20091;-70
2022/02/25 01:41:36;;;;;;;0.93;0.30;;;;;;;;;;4968648;28;19929;-74
2022/02/25 01:44:15;;;;;;;0.60;0.28;;;;;;;;;;4969992;28;20066;-73
2022/02/25 01:46:53;;;;;;;7.05;0.40;;;;;;;;;;4952892;28;20411;-71
2022/02/25 01:49:28;;;;;;;1.10;0.17;;;;;;;;;;4940066;28;20063;-73
2022/02/25 01:52:06;;;;;;;1.08;0.30;;;;;;;;;;4969862;28;20070;-72
2022/02/25 01:54:37;;;;;;;0.50;0.30;;;;;;;;;;4969704;28;20047;-71
2022/02/25 01:57:12;;;;;;;0.35;0.20;;;;;;;;;;4875828;28;20128;-72
2022/02/25 01:59:44;;;;;;;1.25;0.20;;;;;;;;;;4881627;29;20048;-65
2022/02/25 02:02:14;;;;;;;0.73;0.10;;;;;;;;;;4912295;29;20074;-65
2022/02/25 02:04:44;;;;;;;3.03;0.30;;;;;;;;;;4912386;29;20418;-65
2022/02/25 02:07:19;;;;;;;2.03;0.38;;;;;;;;;;4912210;29;20060;-64
2022/02/25 02:09:53;;;;;;;0.70;0.20;;;;;;;;;;4943157;29;20109;-65
2022/02/25 02:12:25;;;;;;;1.63;0.30;;;;;;;;;;4950308;29;20070;-65
2022/02/25 02:14:54;;;;;;;1.98;0.40;;;;;;;;;;4934576;29;20471;-65
2022/02/25 02:17:27;;;;;;;0.50;0.20;;;;;;;;;;4919925;28;20519;-65
2022/02/25 02:20:01;;;;;;;2.50;0.63;;;;;;;;;;4915110;29;20056;-66
2022/02/25 02:22:39;;;;;;;1.20;0.38;;;;;;;;;;4851984;29;20048;-66
2022/02/25 02:25:09;;;;;;;1.08;0.30;;;;;;;;;;4881677;29;20068;-66
2022/02/25 02:30:36;;;;;;;1.08;0.30;;;;;;;;;;4896821;29;20065;-66
2022/02/25 02:33:07;;;;;;;1.27;0.40;;;;;;;;;;4896969;29;20502;-65
2022/02/25 02:35:38;;;;;;;1.38;0.50;;;;;;;;;;4866207;29;20063;-65
2022/02/25 02:38:10;;;;;;;3.42;0.30;;;;;;;;;;4944136;29;20063;-65
2022/02/25 02:40:42;;;;;;;1.48;0.30;;;;;;;;;;4906345;29;20087;-66
2022/02/25 02:43:14;;;;;;;1.48;0.30;;;;;;;;;;4934367;29;20512;-66
2022/02/25 02:45:44;;;;;;;0.45;0.20;;;;;;;;;;4918588;29;20064;-66
2022/02/25 02:48:15;;;;;;;1.58;0.30;;;;;;;;;;4934342;29;20067;-66
2022/02/25 02:50:50;;;;;;;1.65;0.30;;;;;;;;;;4934214;29;20056;-66
2022/02/25 02:53:22;;;;;;;1.02;0.20;;;;;;;;;;4934362;29;20070;-66
2022/02/25 02:55:52;;;;;;;0.60;0.30;;;;;;;;;;4934051;29;20060;-66
2022/02/25 02:58:26;;;;;;;3.50;0.30;;;;;;;;;;4933993;29;20067;-66
2022/02/25 03:00:59;;;;;;;1.27;0.35;;;;;;;;;;4948725;29;20063;-66
2022/02/25 03:03:30;;;;;;;2.88;0.22;;;;;;;;;;4953229;29;20059;-66
2022/02/25 03:06:01;;;;;;;1.90;0.40;;;;;;;;;;4952874;29;20070;-66
2022/02/25 03:08:34;;;;;;;4.00;0.40;;;;;;;;;;4936979;29;20058;-66
2022/02/25 03:11:05;;;;;;;2.00;0.60;;;;;;;;;;4937705;29;20058;-65
2022/02/25 03:13:35;;;;;;;1.25;0.40;;;;;;;;;;4937474;29;20059;-66
2022/02/25 03:16:06;;;;;;;1.23;0.47;;;;;;;;;;4952791;29;20202;-66
2022/02/25 03:18:41;;;;;;;1.52;0.50;;;;;;;;;;4952985;29;20434;-66
2022/02/25 03:21:14;;;;;;;1.38;0.47;;;;;;;;;;4950102;28;20047;-66
2022/02/25 03:23:44;;;;;;;2.65;0.47;;;;;;;;;;4924376;28;20055;-69
2022/02/25 03:26:14;;;;;;;2.08;0.52;;;;;;;;;;4956132;28;20050;-68
2022/02/25 03:28:50;;;;;;;1.30;0.38;;;;;;;;;;4953480;28;20054;-69
2022/02/25 03:31:23;;;;;;;1.77;0.55;;;;;;;;;;4975662;28;20062;-67
2022/02/25 03:33:58;;;;;;;2.55;0.60;;;;;;;;;;4960818;28;20055;-67
2022/02/25 03:36:28;;;;;;;2.17;0.60;;;;;;;;;;4991112;28;20627;-68
2022/02/25 03:39:02;;;;;;;4.50;0.68;;;;;;;;;;4991534;28;20411;-67
2022/02/25 03:41:34;;;;;;;2.70;0.70;;;;;;;;;;4946008;28;20525;-67
2022/02/25 03:44:05;;;;;;;2.55;0.70;;;;;;;;;;4988875;28;20061;-68
2022/02/25 03:46:35;;;;;;;4.90;0.50;;;;;;;;;;5012913;28;20046;-68
2022/02/25 03:49:07;;;;;;;2.55;0.70;;;;;;;;;;5013121;28;20050;-71
2022/02/25 03:51:38;;;;;;;2.38;0.70;;;;;;;;;;5013003;28;20506;-69
2022/02/25 03:54:09;;;;;;;;;;;;;;;;;;4995608;28;20054;-69
2022/02/25 03:56:38;;;;;;;3.72;0.40;;;;;;;;;;5012686;28;20440;-69
2022/02/25 03:59:09;;;;;;;2.13;0.52;;;;;;;;;;5012956;28;20053;-69
2022/02/25 04:01:41;;;;;;;3.40;0.80;;;;;;;;;;5012791;28;20053;-69
2022/02/25 04:04:12;;;;;;;1.83;0.70;;;;;;;;;;5012991;28;20053;-70
2022/02/25 04:06:44;;;;;;;1.88;0.85;;;;;;;;;;4990461;28;20053;-67
2022/02/25 04:09:18;;;;;;;2.40;0.50;;;;;;;;;;4990825;28;20061;-68
2022/02/25 04:11:53;;;;;;;3.08;0.70;;;;;;;;;;4975461;28;20061;-68
2022/02/25 04:14:24;;;;;;;1.92;0.80;;;;;;;;;;4959700;28;20062;-68
2022/02/25 04:16:55;;;;;;;2.22;1.00;;;;;;;;;;4990453;28;20066;-68
2022/02/25 04:19:25;;;;;;;3.35;0.60;;;;;;;;;;4990687;28;20442;-69
2022/02/25 04:21:57;;;;;;;1.67;1.10;;;;;;;;;;4958962;28;20058;-70
2022/02/25 04:24:28;;;;;;;1.83;0.88;;;;;;;;;;4990511;28;20491;-70
2022/02/25 04:26:58;;;;;;;1.30;0.40;;;;;;;;;;4958044;28;20388;-66
2022/02/25 04:29:28;;;;;;;3.58;0.70;;;;;;;;;;4974633;28;20522;-67
2022/02/25 04:31:59;;;;;;;2.50;0.77;;;;;;;;;;4990195;28;20058;-67
2022/02/25 04:34:30;;;;;;;2.58;0.68;;;;;;;;;;4951408;29;20524;-69
2022/02/25 04:37:01;;;;;;;5.93;0.80;;;;;;;;;;4919346;29;20063;-68
2022/02/25 04:39:32;;;;;;;3.00;1.08;;;;;;;;;;4951540;29;20177;-68
2022/02/25 04:42:02;;;;;;;1.63;0.77;;;;;;;;;;4950519;28;20067;-67
2022/02/25 04:44:32;;;;;;;2.63;0.82;;;;;;;;;;4951287;29;20124;-68
2022/02/25 04:47:08;;;;;;;5.28;2.00;;;;;;;;;;4951408;29;20059;-67
2022/02/25 04:49:41;;;;;;;4.25;1.20;;;;;;;;;;4951290;29;20062;-68
2022/02/25 04:52:13;;;;;;;3.67;1.20;;;;;;;;;;4919050;29;20124;-67
2022/02/25 04:54:43;;;;;;;5.15;1.20;;;;;;;;;;4951395;29;20047;-68
2022/02/25 04:57:14;;;;;;;2.80;1.27;;;;;;;;;;4970163;28;20055;-69
2022/02/25 04:59:46;;;;;;;4.07;1.02;;;;;;;;;;4970361;28;20062;-71
2022/02/25 05:02:18;;;;;;;5.97;1.42;;;;;;;;;;4970274;28;20063;-70
2022/02/25 05:04:49;;;;;;;4.65;1.33;;;;;;;;;;4953965;28;20047;-70
2022/02/25 05:07:20;;;;;;;4.55;1.35;;;;;;;;;;4970758;28;20059;-69
2022/02/25 05:09:53;;;;;;;5.13;1.20;;;;;;;;;;4954187;28;20062;-67
2022/02/25 05:12:26;;;;;;;3.33;1.30;;;;;;;;;;4972242;28;20062;-67
2022/02/25 05:20:43;;;;;;;;;;;;;;;;;;4957738;28;20399;-68
2022/02/25 05:23:14;;;;;;;6.15;1.10;;;;;;;;;;4989698;28;19921;-67
2022/02/25 05:25:47;;;;;;;1.92;0.93;;;;;;;;;;4950329;29;20051;-67
2022/02/25 05:28:18;;;;;;;3.08;1.38;;;;;;;;;;4950591;29;20093;-70
2022/02/25 05:30:50;;;;;;;5.85;1.60;;;;;;;;;;4919127;29;20058;-66
2022/02/25 05:33:23;;;;;;;4.97;1.55;;;;;;;;;;4950895;29;20051;-66
2022/02/25 05:35:53;;;;;;;5.05;1.77;;;;;;;;;;4950346;29;20059;-64
2022/02/25 05:38:25;;;;;;;5.82;1.42;;;;;;;;;;4919030;29;20051;-64
2022/02/25 05:40:58;;;;;;;4.28;1.50;;;;;;;;;;4950554;29;20403;-64
2022/02/25 05:43:29;;;;;;;6.82;1.85;;;;;;;;;;4968184;28;20474;-65
2022/02/25 05:46:00;;;;;;;4.03;1.67;;;;;;;;;;4969963;28;20050;-67
2022/02/25 05:48:31;;;;;;;5.68;2.13;;;;;;;;;;4938183;28;20054;-69
2022/02/25 05:51:03;;;;;;;4.88;2.00;;;;;;;;;;4969644;28;20087;-70
2022/02/25 05:53:36;;;;;;;4.13;1.55;;;;;;;;;;4940812;28;20051;-68
2022/02/25 05:56:10;;;;;;;3.45;1.40;;;;;;;;;;4973656;28;20051;-69
2022/02/25 05:58:41;;;;;;;5.80;1.60;;;;;;;;;;4973793;28;20053;-72
2022/02/25 06:01:14;;;;;;;4.30;1.60;;;;;;;;;;4970790;28;20143;-71
2022/02/25 06:03:46;;;;;;;4.95;1.98;;;;;;;;;;4999758;28;20080;-71
2022/02/25 06:06:19;;;;;;;6.70;2.10;;;;;;;;;;5015169;28;20053;-70
2022/02/25 06:08:49;;;;;;;7.32;2.35;;;;;;;;;;4992762;28;20050;-70
2022/02/25 06:11:21;;;;;;;4.30;2.13;;;;;;;;;;4976850;28;20077;-69
2022/02/25 06:13:52;;;;;;;6.85;2.38;;;;;;;;;;4929692;28;20062;-72
2022/02/25 06:16:24;;;;;;;7.10;2.55;;;;;;;;;;4992593;28;20054;-70
2022/02/25 06:18:55;;;;;;;6.43;2.53;;;;;;;;;;4946193;28;20062;-67
2022/02/25 06:21:26;;;;;;;7.10;3.20;;;;;;;;;;4992706;28;20083;-67
2022/02/25 06:23:58;;;;;;;5.68;2.85;;;;;;;;;;4921724;29;20051;-66
2022/02/25 06:26:29;;;;;;;6.57;3.10;;;;;;;;;;4953801;29;20074;-65
2022/02/25 06:29:00;;;;;;;5.45;2.67;;;;;;;;;;4915588;29;20059;-65
2022/02/25 06:31:32;;;;;;;7.43;2.58;;;;;;;;;;4900317;29;20071;-65
2022/02/25 06:34:07;;;;;;;5.32;2.85;;;;;;;;;;4899431;29;20071;-65
2022/02/25 06:36:39;;;;;;;5.30;1.92;;;;;;;;;;4883630;29;20190;-64
2022/02/25 06:39:09;;;;;;;4.60;1.30;;;;;;;;;;4900377;29;20063;-63
2022/02/25 06:41:41;;;;;;;3.10;1.58;;;;;;;;;;4915271;29;20059;-64
2022/02/25 06:44:13;;;;;;;2.33;1.65;;;;;;;;;;4853087;29;20393;-64
2022/02/25 06:46:44;;;;;;;3.90;1.58;;;;;;;;;;4911472;29;20086;-64
2022/02/25 06:49:14;;;;;;;3.55;1.85;;;;;;;;;;4877689;29;20053;-65
2022/02/25 06:51:45;;;;;;;4.55;1.58;;;;;;;;;;4877640;29;20056;-64
2022/02/25 06:54:17;;;;;;;3.67;1.45;;;;;;;;;;4877662;29;20521;-66
2022/02/25 06:56:49;;;;;;;4.05;1.83;;;;;;;;;;4831293;29;20064;-66
2022/02/25 06:59:19;;;;;;;2.25;1.40;;;;;;;;;;4877926;29;20066;-66
2022/02/25 07:01:51;;;;;;;3.05;1.10;;;;;;;;;;4899927;29;20060;-66
2022/02/25 07:04:22;;;;;;;3.80;1.52;;;;;;;;;;4882990;29;20087;-64
2022/02/25 07:06:54;;;;;;;5.30;1.55;;;;;;;;;;4938059;29;20055;-64
2022/02/25 07:09:24;;;;;;;4.50;1.80;;;;;;;;;;4949691;29;20048;-64
2022/02/25 07:11:59;;;;;;;4.47;1.65;;;;;;;;;;4933875;29;20059;-64
2022/02/25 07:14:33;;;;;;;9.40;2.20;;;;;;;;;;4933773;29;20067;-64
2022/02/25 07:17:05;;;;;;;4.13;1.35;;;;;;;;;;4903423;29;20051;-66
2022/02/25 07:19:35;;;;;;;4.15;1.60;;;;;;;;;;4933905;29;20066;-66
2022/02/25 07:22:10;;;;;;;2.80;1.70;;;;;;;;;;4933665;29;20048;-66
2022/02/25 07:24:41;;;;;;;2.58;1.40;;;;;;;;;;4952582;29;20431;-66
2022/02/25 07:27:11;;;;;;;7.68;1.67;;;;;;;;;;4928988;29;20055;-65
2022/02/25 07:29:42;;;;;;;4.88;1.80;;;;;;;;;;4952846;29;20408;-65
2022/02/25 07:32:14;;;;;;;7.03;2.10;;;;;;;;;;4937062;29;20062;-65
2022/02/25 07:34:46;;;;;;;7.63;1.85;;;;;;;;;;4952782;29;20063;-64
2022/02/25 07:37:17;;;;;;;2.47;1.58;;;;;;;;;;4932807;29;20513;-64
2022/02/25 07:39:47;;;;;;;3.85;2.10;;;;;;;;;;4933396;29;20490;-64
2022/02/25 07:42:19;;;;;;;3.35;1.45;;;;;;;;;;4933280;29;20055;-64
2022/02/25 07:44:51;;;;;;;4.65;1.85;;;;;;;;;;4914348;29;20069;-64
2022/02/25 07:47:22;;;;;;;7.15;2.00;;;;;;;;;;4914368;29;20071;-64
2022/02/25 07:49:54;;;;;;;4.03;1.90;;;;;;;;;;4899027;29;20044;-65
2022/02/25 07:52:33;;;;;;;3.78;1.90;;;;;;;;;;4914089;29;20060;-65
2022/02/25 07:55:06;;;;;;;3.53;1.95;;;;;;;;;;4913884;29;20064;-64
2022/02/25 07:57:38;;;;;;;6.82;3.28;;;;;;;;;;4913959;29;20456;-64
2022/02/25 08:00:25;;;;;;;4.70;2.25;;;;;;;;;;4913902;29;20532;-64
2022/02/25 08:03:00;;;;;;;3.92;2.00;;;;;;;;;;4873624;29;20060;-64
2022/02/25 08:05:36;;;;;;;3.60;2.13;;;;;;;;;;4913634;29;20060;-64
2022/02/25 08:08:07;;;;;;;5.80;1.88;;;;;;;;;;4932806;29;20752;-64
2022/02/25 08:10:38;;;;;;;7.28;2.20;;;;;;;;;;4932308;29;20059;-64
2022/02/25 08:13:10;;;;;;;6.80;2.45;;;;;;;;;;4894614;29;20091;-64
2022/02/25 08:15:43;;;;;;;4.20;2.20;;;;;;;;;;4893626;29;20048;-64
2022/02/25 08:18:14;;;;;;;4.00;2.38;;;;;;;;;;4932661;29;20072;-64
2022/02/25 08:20:44;;;;;;;4.10;2.20;;;;;;;;;;4913235;29;20056;-64
2022/02/25 08:23:15;;;;;;;4.20;2.22;;;;;;;;;;4897914;29;20068;-64
2022/02/25 08:25:46;;;;;;;4.05;1.83;;;;;;;;;;4895002;29;20509;-64
2022/02/25 08:28:16;;;;;;;6.28;2.03;;;;;;;;;;4894626;29;20556;-64
2022/02/25 08:30:48;;;;;;;3.72;2.10;;;;;;;;;;4894584;29;20065;-64
2022/02/25 08:33:19;;;;;;;4.43;2.10;;;;;;;;;;4844889;29;20060;-64
2022/02/25 08:35:50;;;;;;;5.85;1.70;;;;;;;;;;4844586;29;20045;-64
2022/02/25 08:38:21;;;;;;;4.72;1.92;;;;;;;;;;4856897;29;20049;-64
2022/02/25 08:40:52;;;;;;;4.68;1.80;;;;;;;;;;4880020;29;20056;-64
2022/02/25 08:43:24;;;;;;;6.75;2.30;;;;;;;;;;4894470;29;20202;-64
2022/02/25 08:46:14;;;;;;;4.03;1.60;;;;;;;;;;4856714;29;20046;-64
2022/02/25 08:48:45;;;;;;;5.32;1.88;;;;;;;;;;4810885;29;20076;-64
2022/02/25 08:51:15;;;;;;;4.28;1.88;;;;;;;;;;4838822;29;20403;-64
2022/02/25 08:53:46;;;;;;;4.22;1.83;;;;;;;;;;4875571;29;20093;-64
2022/02/25 08:56:16;;;;;;;4.63;2.03;;;;;;;;;;4875504;29;20064;-64
2022/02/25 08:58:49;;;;;;;5.15;1.70;;;;;;;;;;4856866;29;20403;-64
2022/02/25 09:01:22;;;;;;;4.32;1.85;;;;;;;;;;4837850;29;20054;-64
2022/02/25 09:03:54;;;;;;;4.68;1.88;;;;;;;;;;4838385;29;20170;-64
2022/02/25 09:06:28;;;;;;;7.18;2.40;;;;;;;;;;4838370;29;20054;-64
2022/02/25 09:09:04;;;;;;;7.22;1.70;;;;;;;;;;4838654;29;20057;-64
2022/02/25 09:11:34;;;;;;;6.10;1.60;;;;;;;;;;4838219;29;20208;-64
2022/02/25 09:14:04;;;;;;;5.10;1.90;;;;;;;;;;4838215;29;20069;-64
2022/02/25 09:16:34;;;;;;;3.97;2.10;;;;;;;;;;4825806;29;20092;-64
2022/02/25 09:19:09;;;;;;;3.25;1.60;;;;;;;;;;4856753;29;20061;-64
2022/02/25 09:21:43;;;;;;;3.47;1.90;;;;;;;;;;4856918;29;20491;-63
2022/02/25 09:24:14;;;;;;;3.47;1.67;;;;;;;;;;4844257;29;20053;-63
2022/02/25 09:26:44;;;;;;;4.00;2.08;;;;;;;;;;4901890;29;20420;-64
2022/02/25 09:29:14;;;;;;;7.25;2.22;;;;;;;;;;4893462;29;20059;-64
2022/02/25 09:31:47;;;;;;;3.97;1.63;;;;;;;;;;4893845;29;20060;-63
2022/02/25 09:34:18;;;;;;;3.22;1.75;;;;;;;;;;4893559;29;20057;-63
2022/02/25 09:36:51;;;;;;;2.83;2.00;;;;;;;;;;4895533;29;20083;-64
2022/02/25 09:39:21;;;;;;;3.17;1.45;;;;;;;;;;4925291;29;20091;-63
2022/02/25 09:41:56;;;;;;;;;;;;;;;;;;4915928;29;20697;-64
2022/02/25 09:44:28;;;;;;;2.47;1.33;;;;;;;;;;4915458;29;19923;-64
2022/02/25 09:47:02;;;;;;;3.90;1.40;;;;;;;;;;4853294;29;20054;-64
2022/02/25 09:49:33;;;;;;;3.42;1.70;;;;;;;;;;4931402;29;20063;-64
2022/02/25 09:52:08;;;;;;;3.33;1.40;;;;;;;;;;4931335;29;20056;-64
2022/02/25 09:54:42;;;;;;;5.00;2.22;;;;;;;;;;4912579;29;20062;-65
2022/02/25 09:57:13;;;;;;;3.78;2.03;;;;;;;;;;4950111;29;20554;-67
2022/02/25 09:59:43;;;;;;;4.13;1.90;;;;;;;;;;4950468;29;20063;-67
2022/02/25 10:02:16;;;;;;;3.90;2.05;;;;;;;;;;4950245;29;20136;-66
2022/02/25 10:04:49;;;;;;;6.57;1.80;;;;;;;;;;4903828;29;20074;-69
2022/02/25 10:07:24;;;;;;;;;;;;;;;;;;4925450;29;20067;-66
2022/02/25 10:09:55;;;;;;;5.22;2.05;;;;;;;;;;4903170;29;19933;-64
2022/02/25 10:12:29;;;;;;;4.63;2.00;;;;;;;;;;4950357;29;20059;-65
2022/02/25 10:15:02;;;;;;;3.45;2.10;;;;;;;;;;4950349;28;20055;-65
2022/02/25 10:17:35;;;;;;;4.95;2.05;;;;;;;;;;4950146;28;20164;-65
2022/02/25 10:20:07;;;;;;;4.03;1.90;;;;;;;;;;4950408;29;20457;-65
2022/02/25 10:23:03;;;;;;;3.72;2.05;;;;;;;;;;4950560;29;20534;-65
2022/02/25 10:25:37;;;;;;;5.75;2.03;;;;;;;;;;4950032;29;20059;-70
2022/02/25 10:28:08;;;;;;;4.35;2.38;;;;;;;;;;4903021;28;20067;-69
2022/02/25 10:30:39;;;;;;;4.35;2.30;;;;;;;;;;4934484;29;20051;-71
2022/02/25 10:33:11;;;;;;;;;;;;;;;;;;4950696;28;20500;-72
2022/02/25 10:35:42;;;;;;;4.05;2.05;;;;;;;;;;4950314;29;19922;-71
2022/02/25 10:38:18;;;;;;;3.70;2.58;;;;;;;;;;4972502;28;20042;-69
2022/02/25 10:40:52;;;;;;;5.30;2.50;;;;;;;;;;5013303;28;20046;-71
2022/02/25 10:43:28;;;;;;;6.07;1.90;;;;;;;;;;5014738;28;20046;-70
2022/02/25 10:46:09;;;;;;;4.82;1.65;;;;;;;;;;5014187;28;20069;-70
2022/02/25 10:48:44;;;;;;;4.13;1.40;;;;;;;;;;4995934;28;20446;-69
2022/02/25 10:51:22;;;;;;;3.45;1.25;;;;;;;;;;5014297;28;20046;-68
2022/02/25 10:54:00;;;;;;;2.83;1.30;;;;;;;;;;4953249;28;20055;-68
2022/02/25 10:56:45;;;;;;;2.30;0.70;;;;;;;;;;4953575;28;20060;-67
2022/02/25 10:59:16;;;;;;;0.95;0.40;;;;;;;;;;4936954;28;20048;-66
2022/02/25 11:01:46;;;;;;;1.40;0.40;;;;;;;;;;4953300;28;20127;-66
2022/02/25 11:04:18;;;;;;;3.15;0.38;;;;;;;;;;4890900;28;20059;-65
2022/02/25 11:06:50;;;;;;;0.70;0.32;;;;;;;;;;4953455;28;20047;-65
2022/02/25 11:09:22;;;;;;;0.82;0.25;;;;;;;;;;4953060;28;20167;-66
2022/02/25 11:11:52;;;;;;;;;;;;;;;;;;4953695;28;20564;-66
2022/02/25 11:14:24;;;;;;;0.50;0.20;;;;;;;;;;4883052;29;20287;-69
2022/02/25 11:16:55;;;;;;;1.83;0.30;;;;;;;;;;4914957;29;20068;-74
2022/02/25 11:19:28;;;;;;;4.38;0.20;;;;;;;;;;4895586;29;20095;-72
2022/02/25 11:21:58;;;;;;;1.85;0.43;;;;;;;;;;4864674;29;20076;-70
2022/02/25 11:24:35;;;;;;;2.83;0.30;;;;;;;;;;4895621;29;20061;-74
2022/02/25 11:27:27;;;;;;;1.52;0.30;;;;;;;;;;4871731;29;20068;-71
2022/02/25 11:30:08;;;;;;;1.42;0.20;;;;;;;;;;4895895;29;20057;-70
2022/02/25 11:33:03;;;;;;;2.85;0.20;;;;;;;;;;4933341;29;20107;-72
2022/02/25 11:35:49;;;;;;;3.17;0.20;;;;;;;;;;4917453;29;20106;-73
2022/02/25 11:38:38;;;;;;;1.60;0.20;;;;;;;;;;4933498;29;20676;-72
2022/02/25 11:41:15;;;;;;;0.80;0.20;;;;;;;;;;4902505;29;20075;-71
2022/02/25 11:43:52;;;;;;;1.88;0.20;;;;;;;;;;4933432;29;20681;-72
2022/02/25 11:46:34;;;;;;;1.63;0.20;;;;;;;;;;4933024;29;20055;-72
2022/02/25 11:49:08;;;;;;;2.50;0.50;;;;;;;;;;4933157;29;20051;-71
2022/02/25 11:51:41;;;;;;;1.48;0.50;;;;;;;;;;4920396;29;20055;-70
2022/02/25 11:54:34;;;;;;;1.65;0.47;;;;;;;;;;4901726;29;20044;-72
2022/02/25 11:57:09;;;;;;;1.60;0.35;;;;;;;;;;4933198;29;20064;-71
2022/02/25 11:59:42;;;;;;;5.30;0.65;;;;;;;;;;4932904;29;20452;-69
2022/02/25 12:02:22;;;;;;;2.17;0.45;;;;;;;;;;4933107;29;20054;-71
2022/02/25 12:04:55;;;;;;;3.13;0.75;;;;;;;;;;4932885;29;20134;-73
2022/02/25 12:07:31;;;;;;;8.00;1.00;;;;;;;;;;4913666;29;20048;-72
2022/02/25 12:10:16;;;;;;;20.67;2.55;;;;;;;;;;4882167;29;20071;-72
2022/02/25 12:13:00;;;;;;;18.02;2.55;;;;;;;;;;4913774;29;20060;-70
2022/02/25 12:15:39;;;;;;;7.07;0.80;;;;;;;;;;4867048;29;20824;-68
2022/02/25 12:18:15;;;;;;;3.08;0.63;;;;;;;;;;4913634;29;20063;-67
2022/02/25 12:21:08;;;;;;;1.73;0.32;;;;;;;;;;4913677;29;20056;-68
2022/02/25 12:23:49;;;;;;;3.78;0.40;;;;;;;;;;4868291;29;20517;-68
2022/02/25 12:26:31;;;;;;;1.00;0.40;;;;;;;;;;4920106;29;20077;-69
2022/02/25 12:29:19;;;;;;;3.22;0.70;;;;;;;;;;4939956;29;20447;-67
2022/02/25 12:31:53;;;;;;;3.15;0.50;;;;;;;;;;4931966;29;20062;-68
2022/02/25 12:34:25;;;;;;;2.03;0.60;;;;;;;;;;4901417;29;20129;-68
2022/02/25 12:36:56;;;;;;;3.40;1.35;;;;;;;;;;4885358;29;20059;-71
2022/02/25 12:39:34;;;;;;;1.88;0.80;;;;;;;;;;4932400;29;20064;-71
2022/02/25 12:42:10;;;;;;;5.05;0.60;;;;;;;;;;4931964;29;20063;-71
2022/02/25 12:44:44;;;;;;;7.20;0.80;;;;;;;;;;4945124;28;20051;-73
2022/02/25 12:47:14;;;;;;;3.10;0.80;;;;;;;;;;4954728;28;20051;-70
2022/02/25 12:49:48;;;;;;;1.58;1.15;;;;;;;;;;4919240;28;20055;-70
2022/02/25 12:52:20;;;;;;;2.45;0.70;;;;;;;;;;4935538;28;20464;-68
2022/02/25 12:54:57;;;;;;;2.85;0.90;;;;;;;;;;4951247;28;20409;-69
2022/02/25 12:57:32;;;;;;;3.08;0.63;;;;;;;;;;4951266;28;20155;-70
2022/02/25 13:00:05;;;;;;;1.33;0.70;;;;;;;;;;4951009;28;20149;-68
2022/02/25 13:02:36;;;;;;;4.78;2.03;;;;;;;;;;4919277;28;20610;-70
2022/02/25 13:05:08;;;;;;;4.57;1.92;;;;;;;;;;4956242;28;20047;-69
2022/02/25 13:07:38;;;;;;;6.80;2.92;;;;;;;;;;4951012;28;20055;-70
2022/02/25 13:10:12;;;;;;;5.75;2.03;;;;;;;;;;4950760;28;20071;-68
2022/02/25 13:12:43;;;;;;;3.10;1.73;;;;;;;;;;4950913;28;20063;-68
2022/02/25 13:15:14;;;;;;;4.45;2.05;;;;;;;;;;4950602;28;20059;-68
2022/02/25 13:17:46;;;;;;;2.03;0.82;;;;;;;;;;4950952;28;20217;-69
2022/02/25 13:20:18;;;;;;;1.45;0.60;;;;;;;;;;4950654;28;20063;-68
2022/02/25 13:22:53;;;;;;;1.20;0.40;;;;;;;;;;4942581;28;20051;-71
2022/02/25 13:25:25;;;;;;;1.45;0.45;;;;;;;;;;4969953;28;20066;-75
2022/02/25 13:28:02;;;;;;;6.57;2.72;;;;;;;;;;4983702;28;20050;-74
2022/02/25 13:30:44;;;;;;;6.03;0.90;;;;;;;;;;4957336;28;20054;-73
2022/02/25 13:33:18;;;;;;;3.03;1.45;;;;;;;;;;4989633;28;20050;-69
2022/02/25 13:35:59;;;;;;;6.57;1.67;;;;;;;;;;4957428;28;20058;-68
2022/02/25 13:38:32;;;;;;;3.25;1.45;;;;;;;;;;4989307;28;20053;-67
2022/02/25 13:41:10;;;;;;;2.70;1.10;;;;;;;;;;4989060;28;20418;-66
2022/02/25 13:43:46;;;;;;;3.25;1.10;;;;;;;;;;4926155;28;20766;-66
2022/02/25 13:46:27;;;;;;;1.92;0.85;;;;;;;;;;4989408;28;20116;-66
2022/02/25 13:52:21;;;;;;;3.85;1.13;;;;;;;;;;4969558;28;20051;-65
2022/02/25 13:55:06;;;;;;;2.05;0.80;;;;;;;;;;4924702;28;20055;-65
2022/02/25 13:57:44;;;;;;;4.75;1.50;;;;;;;;;;4969668;28;20058;-65
2022/02/25 14:00:26;;;;;;;12.65;6.00;;;;;;;;;;4969765;28;20058;-65
2022/02/25 14:03:00;;;;;;;1.95;0.70;;;;;;;;;;4953832;28;20050;-64
2022/02/25 14:05:37;;;;;;;2.85;1.23;;;;;;;;;;4969675;28;20192;-65
2022/02/25 14:08:23;;;;;;;3.58;0.63;;;;;;;;;;4953576;28;20055;-64
2022/02/25 14:10:56;;;;;;;1.95;0.63;;;;;;;;;;4922574;28;20054;-64
2022/02/25 14:13:32;;;;;;;2.17;0.50;;;;;;;;;;4970338;28;20046;-65
2022/02/25 14:16:27;;;;;;;2.92;0.60;;;;;;;;;;4925883;28;20065;-64
2022/02/25 14:19:18;;;;;;;2.95;0.75;;;;;;;;;;4925272;28;20058;-64
2022/02/25 14:21:51;;;;;;;1.60;0.73;;;;;;;;;;4973405;28;20062;-64
2022/02/25 14:24:27;;;;;;;1.17;0.60;;;;;;;;;;4973475;28;20043;-65
2022/02/25 14:27:11;;;;;;;4.13;0.50;;;;;;;;;;4973194;28;20059;-64
2022/02/25 14:29:55;;;;;;;2.65;0.60;;;;;;;;;;4984014;28;20114;-65
2022/02/25 14:32:50;;;;;;;2.40;0.68;;;;;;;;;;5005451;28;20046;-65
2022/02/25 14:35:30;;;;;;;2.10;0.50;;;;;;;;;;4992209;28;20054;-65
2022/02/25 14:38:05;;;;;;;3.17;0.52;;;;;;;;;;4992243;28;20558;-65
2022/02/25 14:40:38;;;;;;;1.33;0.52;;;;;;;;;;4992546;28;20062;-65
2022/02/25 14:43:08;;;;;;;1.30;0.60;;;;;;;;;;4960570;28;20499;-65
2022/02/25 14:45:40;;;;;;;1.20;0.65;;;;;;;;;;4992416;28;20120;-65
2022/02/25 14:48:15;;;;;;;1.27;0.70;;;;;;;;;;4976748;28;20058;-65
2022/02/25 14:50:47;;;;;;;1.75;0.65;;;;;;;;;;4959813;28;20190;-64
2022/02/25 14:53:19;;;;;;;1.33;0.52;;;;;;;;;;4992169;28;20061;-65
2022/02/25 14:55:50;;;;;;;1.48;0.32;;;;;;;;;;4992238;28;20098;-65
2022/02/25 14:58:22;;;;;;;2.20;0.90;;;;;;;;;;4991935;28;20050;-64
2022/02/25 15:00:56;;;;;;;0.75;0.35;;;;;;;;;;4992052;28;20513;-62
2022/02/25 15:03:26;;;;;;;1.50;0.32;;;;;;;;;;4960252;28;20050;-64
2022/02/25 15:06:01;;;;;;;2.75;0.40;;;;;;;;;;4991995;28;20584;-65
2022/02/25 15:08:31;;;;;;;2.20;0.57;;;;;;;;;;4976424;28;20062;-65
2022/02/25 15:11:02;;;;;;;1.52;0.40;;;;;;;;;;4992137;28;20054;-64
2022/02/25 15:13:32;;;;;;;2.08;0.35;;;;;;;;;;5020904;28;20065;-65
2022/02/25 15:16:02;;;;;;;1.10;0.40;;;;;;;;;;5033405;28;20049;-65
2022/02/25 15:18:38;;;;;;;0.35;0.22;;;;;;;;;;5033258;28;20401;-65
2022/02/25 15:21:10;;;;;;;1.27;0.40;;;;;;;;;;5033759;28;20053;-65
2022/02/25 15:23:40;;;;;;;0.57;0.32;;;;;;;;;;5033197;28;20477;-65
2022/02/25 15:26:12;;;;;;;0.65;0.35;;;;;;;;;;4982093;28;20417;-65
2022/02/25 15:28:44;;;;;;;0.75;0.35;;;;;;;;;;5033271;28;20045;-66
2022/02/25 15:31:16;;;;;;;0.70;0.30;;;;;;;;;;4998780;28;20417;-64
2022/02/25 15:33:49;;;;;;;1.55;0.50;;;;;;;;;;4999767;28;20528;-65